Time;durP1;ratioP1;P1;durP2;ratioP2;P2;SDS_P1;SDS_P2;PMS_P1;PMS_P2;Temp;Humidity;BMP_temperature;BMP_pressure;BME280_temperature;BME280_humidity;BME280_pressure;Samples;Min_cycle;Max_cycle;Signal;HPM_P1;HPM_P2
2023/10/18 00:01:24;;;;;;;20.08;6.45;;;;;;;20.34;75.88;98611.81;4941726;28;20027;-82
2023/10/18 00:03:49;;;;;;;19.63;6.83;;;;;;;20.33;76.07;98622.63;4969933;28;20031;-82
2023/10/18 00:06:21;;;;;;;18.38;7.18;;;;;;;20.33;76.05;98630.66;4952846;28;20125;-82
2023/10/18 00:08:47;;;;;;;25.13;6.40;;;;;;;20.39;75.30;98624.03;4970306;28;20117;-83
2023/10/18 00:11:13;;;;;;;20.17;6.13;;;;;;;20.33;75.92;98615.44;4970397;28;20094;-82
2023/10/18 00:13:39;;;;;;;22.48;6.90;;;;;;;20.36;75.90;98609.88;4970466;28;20023;-82
2023/10/18 00:16:06;;;;;;;19.83;6.00;;;;;;;20.40;75.78;98612.34;4952939;28;20109;-83
2023/10/18 00:18:32;;;;;;;20.02;6.43;;;;;;;20.40;75.34;98607.84;4970302;28;20483;-82
2023/10/18 00:21:06;;;;;;;25.15;5.93;;;;;;;20.41;75.40;98616.75;4970244;28;20555;-83
2023/10/18 00:23:32;;;;;;;20.05;6.78;;;;;;;20.36;75.62;98617.91;4952703;28;20023;-82
2023/10/18 00:26:05;;;;;;;19.13;5.93;;;;;;;20.41;75.71;98606.03;4949728;29;20030;-83
2023/10/18 00:28:31;;;;;;;19.17;6.03;;;;;;;20.39;75.68;98607.97;4950899;29;20452;-83
2023/10/18 00:30:57;;;;;;;16.83;6.00;;;;;;;20.40;75.80;98589.13;4969012;28;20026;-82
2023/10/18 00:33:22;;;;;;;20.58;6.40;;;;;;;20.42;75.60;98581.84;4969908;28;20488;-83
2023/10/18 00:35:48;;;;;;;22.67;7.03;;;;;;;20.39;75.73;98565.22;4972794;28;20055;-82
2023/10/18 00:38:18;;;;;;;22.70;6.77;;;;;;;20.42;75.55;98570.31;4974242;28;20498;-83
2023/10/18 00:40:48;;;;;;;20.42;5.35;;;;;;;20.42;75.67;98554.28;4973993;28;20023;-83
2023/10/18 00:43:22;;;;;;;21.55;6.30;;;;;;;20.42;75.43;98554.28;4974071;28;20043;-83
2023/10/18 00:45:52;;;;;;;18.77;5.73;;;;;;;20.37;75.76;98558.13;4973958;28;20533;-82
2023/10/18 00:48:24;;;;;;;20.20;6.47;;;;;;;20.39;75.71;98565.22;4973473;28;20046;-82
2023/10/18 00:50:52;;;;;;;24.38;6.53;;;;;;;20.36;75.69;98556.41;4974026;28;20038;-82
2023/10/18 00:53:24;;;;;;;18.48;6.03;;;;;;;20.40;75.73;98550.88;4973652;28;20029;-82
2023/10/18 00:56:39;;;;;;;20.65;6.40;;;;;;;20.33;76.10;98519.22;4956204;28;20030;-83
2023/10/18 00:58:39;;;;;;;19.93;7.00;;;;;;;20.25;76.31;98502.88;4956602;28;20487;-82
2023/10/18 01:01:09;;;;;;;25.15;6.30;;;;;;;20.27;76.45;98503.63;4973718;28;20106;-82
2023/10/18 01:03:41;;;;;;;27.48;7.30;;;;;;;20.26;76.76;98496.56;4973277;28;20071;-81
2023/10/18 01:06:17;;;;;;;18.80;6.27;;;;;;;20.32;76.26;98506.81;4973419;28;20500;-82
2023/10/18 01:08:46;;;;;;;19.33;6.30;;;;;;;20.28;76.23;98505.34;4973601;28;20050;-83
2023/10/18 01:11:12;;;;;;;18.45;6.10;;;;;;;20.28;75.97;98489.31;4973531;28;20037;-82
2023/10/18 01:13:42;;;;;;;23.98;6.55;;;;;;;20.29;76.45;98490.16;4973778;28;20030;-82
2023/10/18 01:16:15;;;;;;;23.55;6.30;;;;;;;20.33;76.37;98487.13;4956292;28;20023;-82
2023/10/18 01:18:44;;;;;;;28.00;6.30;;;;;;;20.25;76.63;98489.53;4973090;28;20071;-83
2023/10/18 01:21:16;;;;;;;20.80;6.75;;;;;;;20.29;76.21;98482.16;4955973;28;20526;-82
2023/10/18 01:23:43;;;;;;;25.67;7.18;;;;;;;20.32;76.39;98493.44;4955817;28;20035;-82
2023/10/18 01:26:13;;;;;;;19.92;5.55;;;;;;;20.33;75.90;98489.81;4972996;28;20114;-83
2023/10/18 01:28:40;;;;;;;16.33;5.90;;;;;;;20.31;76.18;98483.72;4973522;28;20066;-82
2023/10/18 01:31:06;;;;;;;23.60;5.97;;;;;;;20.31;76.67;98494.41;4973350;28;20561;-83
2023/10/18 01:33:32;;;;;;;18.33;5.43;;;;;;;20.32;76.59;98484.59;4972959;28;20175;-82
2023/10/18 01:35:58;;;;;;;28.30;7.93;;;;;;;20.29;76.42;98474.97;4973281;28;20155;-82
2023/10/18 01:38:29;;;;;;;20.93;5.97;;;;;;;20.35;76.66;98469.16;4973672;28;20041;-82
2023/10/18 01:40:57;;;;;;;22.15;6.45;;;;;;;20.33;76.61;98470.25;4972949;28;20291;-82
2023/10/18 01:43:28;;;;;;;20.10;5.80;;;;;;;20.31;76.32;98473.03;4972986;28;20350;-82
2023/10/18 01:45:54;;;;;;;23.85;6.38;;;;;;;20.30;76.43;98471.31;4972881;28;20033;-82
2023/10/18 01:48:20;;;;;;;20.17;6.73;;;;;;;20.28;76.75;98465.25;4955491;28;20407;-82
2023/10/18 01:50:46;;;;;;;20.80;6.97;;;;;;;20.30;77.08;98465.97;4959797;28;20027;-82
2023/10/18 01:53:23;;;;;;;24.75;7.90;;;;;;;20.29;76.97;98461.59;4972913;28;20035;-81
2023/10/18 01:55:55;;;;;;;22.23;6.70;;;;;;;20.29;76.82;98448.25;4968658;28;20036;-83
2023/10/18 01:58:24;;;;;;;23.65;6.85;;;;;;;20.30;76.71;98444.59;4953434;29;20035;-81
2023/10/18 02:00:53;;;;;;;24.90;7.82;;;;;;;20.34;77.07;98440.72;4953415;29;20059;-82
2023/10/18 02:03:19;;;;;;;21.95;5.68;;;;;;;20.36;76.81;98438.78;4957239;28;20026;-83
2023/10/18 02:05:46;;;;;;;24.85;6.15;;;;;;;20.35;76.85;98436.25;4972537;28;20047;-83
2023/10/18 02:08:12;;;;;;;20.50;6.63;;;;;;;20.37;76.52;98428.97;4972696;28;20074;-83
2023/10/18 02:10:41;;;;;;;21.67;6.53;;;;;;;20.34;76.86;98424.69;4972702;28;20518;-82
2023/10/18 02:13:08;;;;;;;21.75;6.45;;;;;;;20.36;76.60;98424.59;4972684;28;20050;-82
2023/10/18 02:15:35;;;;;;;22.20;6.30;;;;;;;20.39;76.59;98428.88;4972495;28;20039;-83
2023/10/18 02:18:00;;;;;;;22.33;6.88;;;;;;;20.36;76.32;98420.06;4971833;28;20085;-82
2023/10/18 02:20:26;;;;;;;22.77;5.90;;;;;;;20.36;76.60;98417.41;4972040;28;20448;-82
2023/10/18 02:23:07;;;;;;;24.27;7.38;;;;;;;20.39;76.28;98407.47;4955037;28;20039;-82
2023/10/18 02:28:09;;;;;;;21.23;6.45;;;;;;;20.41;76.03;98400.19;4972478;28;20387;-82
2023/10/18 02:30:38;;;;;;;20.48;6.45;;;;;;;20.41;76.11;98398.34;4972063;28;20475;-83
2023/10/18 02:33:06;;;;;;;20.85;6.47;;;;;;;20.45;75.70;98401.66;4971861;28;20106;-84
2023/10/18 02:35:33;;;;;;;16.77;5.70;;;;;;;20.48;75.75;98401.44;4954663;28;20027;-83
2023/10/18 02:38:07;;;;;;;20.77;5.63;;;;;;;20.48;75.73;98401.44;4971962;28;20034;-83
2023/10/18 02:40:37;;;;;;;23.60;6.25;;;;;;;20.46;75.43;98390.84;4971888;28;20023;-83
2023/10/18 02:43:08;;;;;;;19.83;5.68;;;;;;;20.49;75.49;98379.91;4970361;28;20518;-83
2023/10/18 02:45:33;;;;;;;22.50;6.22;;;;;;;20.45;75.64;98380.28;4970628;28;20034;-82
2023/10/18 02:48:00;;;;;;;18.43;5.87;;;;;;;20.50;75.35;98375.44;4952388;29;20035;-82
2023/10/18 02:50:26;;;;;;;24.10;5.30;;;;;;;20.49;75.62;98379.06;4962672;28;20483;-82
2023/10/18 02:52:53;;;;;;;17.13;5.97;;;;;;;20.46;75.85;98373.97;4957218;28;20042;-82
2023/10/18 02:55:19;;;;;;;21.50;6.45;;;;;;;20.51;75.49;98361.97;4952614;28;20030;-83
2023/10/18 02:57:47;;;;;;;20.33;5.97;;;;;;;20.50;75.46;98362.94;4970822;28;20035;-83
2023/10/18 03:00:17;;;;;;;18.92;5.63;;;;;;;20.46;75.52;98360.59;4971785;28;20166;-84
2023/10/18 03:02:44;;;;;;;16.17;5.10;;;;;;;20.54;75.18;98354.66;4971294;28;20117;-82
2023/10/18 03:05:10;;;;;;;28.13;6.40;;;;;;;20.49;75.46;98363.03;4971317;28;20051;-83
2023/10/18 03:07:36;;;;;;;18.10;5.53;;;;;;;20.51;75.33;98363.75;4971625;28;20023;-83
2023/10/18 03:10:11;;;;;;;17.35;5.72;;;;;;;20.52;75.49;98365.47;4971408;28;20031;-82
2023/10/18 03:12:37;;;;;;;22.70;6.20;;;;;;;20.56;75.51;98364.25;4971328;28;20031;-81
2023/10/18 03:15:08;;;;;;;17.73;5.73;;;;;;;20.58;75.40;98358.81;4971334;28;20027;-82
2023/10/18 03:17:36;;;;;;;19.17;4.97;;;;;;;20.58;75.25;98354.28;4970957;28;20130;-81
2023/10/18 03:20:19;;;;;;;20.67;5.63;;;;;;;20.57;75.40;98357.09;4971615;28;20054;-82
2023/10/18 03:22:45;;;;;;;22.20;5.10;;;;;;;20.58;75.47;98364.16;4971484;28;20102;-83
2023/10/18 03:25:16;;;;;;;21.30;5.30;;;;;;;20.57;75.32;98349.91;4953786;28;20480;-83
2023/10/18 03:27:49;;;;;;;19.80;5.65;;;;;;;20.61;75.30;98347.88;4950623;29;20118;-82
2023/10/18 03:30:18;;;;;;;25.40;5.20;;;;;;;20.61;75.03;98338.00;4964098;28;20145;-82
2023/10/18 03:32:49;;;;;;;20.95;5.97;;;;;;;20.64;75.12;98339.59;4970481;28;20090;-83
2023/10/18 03:35:20;;;;;;;21.17;5.65;;;;;;;20.65;75.20;98342.19;4970855;28;20030;-83
2023/10/18 03:37:46;;;;;;;15.03;5.20;;;;;;;20.67;74.67;98338.53;4970904;28;20369;-83
2023/10/18 03:40:26;;;;;;;17.00;5.32;;;;;;;20.67;74.81;98338.53;4970984;28;20034;-83
2023/10/18 03:42:53;;;;;;;21.10;5.68;;;;;;;20.62;75.12;98337.06;4961151;28;20491;-84
2023/10/18 03:45:21;;;;;;;26.13;5.85;;;;;;;20.68;74.67;98334.88;4934502;29;20046;-82
2023/10/18 03:47:59;;;;;;;22.20;6.40;;;;;;;20.64;74.88;98336.94;4970023;28;20210;-82
2023/10/18 03:50:31;;;;;;;18.27;5.37;;;;;;;20.72;74.40;98336.34;4970765;28;20081;-82
2023/10/18 03:52:57;;;;;;;17.65;5.18;;;;;;;20.73;74.26;98336.22;4955266;28;20038;-83
2023/10/18 03:55:36;;;;;;;20.75;5.32;;;;;;;20.70;74.79;98339.13;4952218;28;20479;-82
2023/10/18 03:58:04;;;;;;;21.35;5.60;;;;;;;20.72;74.47;98341.69;4970687;28;20038;-83
2023/10/18 04:00:37;;;;;;;21.45;5.47;;;;;;;20.72;74.82;98336.34;4970767;28;20031;-83
2023/10/18 04:03:08;;;;;;;22.30;5.10;;;;;;;20.72;74.82;98337.19;4970046;28;20027;-82
2023/10/18 04:05:42;;;;;;;20.55;5.65;;;;;;;20.75;74.91;98330.75;4970438;28;20050;-83
2023/10/18 04:08:10;;;;;;;19.13;5.07;;;;;;;20.75;74.56;98330.75;4953046;28;20039;-83
2023/10/18 04:10:36;;;;;;;20.50;5.28;;;;;;;20.74;74.72;98321.91;4970481;28;20034;-83
2023/10/18 04:13:05;;;;;;;20.08;5.68;;;;;;;20.73;75.04;98328.19;4970265;28;20400;-83
2023/10/18 04:15:37;;;;;;;17.60;4.90;;;;;;;20.71;75.13;98323.94;4970457;28;20034;-83
2023/10/18 04:20:35;;;;;;;25.48;6.05;;;;;;;20.73;75.09;98313.97;4970456;28;20344;-82
2023/10/18 04:23:12;;;;;;;20.27;5.15;;;;;;;20.72;74.97;98310.44;4970466;28;20058;-83
2023/10/18 04:25:38;;;;;;;19.67;5.35;;;;;;;20.71;74.84;98315.94;4970187;28;20110;-83
2023/10/18 04:28:04;;;;;;;23.70;5.27;;;;;;;20.71;74.93;98314.09;4970337;28;20207;-82
2023/10/18 04:30:30;;;;;;;19.80;5.72;;;;;;;20.66;75.50;98324.28;4969942;28;20023;-81
2023/10/18 04:32:59;;;;;;;22.25;5.75;;;;;;;20.71;75.14;98313.25;4970119;28;20038;-82
2023/10/18 04:35:29;;;;;;;19.60;5.27;;;;;;;20.69;75.44;98299.16;4970400;28;20023;-83
2023/10/18 04:37:58;;;;;;;17.35;5.35;;;;;;;20.70;75.19;98303.53;4952393;28;20039;-83
2023/10/18 04:40:26;;;;;;;21.88;5.68;;;;;;;20.70;75.40;98295.50;4933947;29;20023;-83
2023/10/18 04:42:55;;;;;;;19.95;5.53;;;;;;;20.72;75.69;98297.06;4960416;28;20027;-83
2023/10/18 04:45:23;;;;;;;22.25;5.13;;;;;;;20.72;75.59;98305.09;4970338;28;20231;-82
2023/10/18 04:47:49;;;;;;;18.47;4.97;;;;;;;20.75;75.36;98299.53;4969778;28;20077;-83
2023/10/18 04:50:29;;;;;;;15.98;5.43;;;;;;;20.72;75.38;98291.72;4969953;28;20027;-83
2023/10/18 04:52:57;;;;;;;23.02;4.80;;;;;;;20.75;75.58;98298.66;4954922;28;20110;-83
2023/10/18 04:55:25;;;;;;;21.10;5.28;;;;;;;20.74;75.23;98296.97;4934538;28;20455;-83
2023/10/18 04:57:52;;;;;;;22.35;5.57;;;;;;;20.71;75.85;98286.50;4952682;28;20034;-82
2023/10/18 05:00:25;;;;;;;19.77;5.93;;;;;;;20.74;75.51;98292.47;4952835;28;20033;-83
2023/10/18 05:02:54;;;;;;;20.92;5.72;;;;;;;20.75;75.37;98287.97;4969951;28;20443;-82
2023/10/18 05:05:20;;;;;;;22.17;6.40;;;;;;;20.74;75.42;98286.25;4970338;28;20050;-82
2023/10/18 05:07:48;;;;;;;23.10;5.38;;;;;;;20.79;75.08;98290.31;4969942;28;20122;-82
2023/10/18 05:10:14;;;;;;;24.00;6.43;;;;;;;20.79;75.40;98286.75;4969991;28;20159;-82
2023/10/18 05:12:53;;;;;;;23.77;5.33;;;;;;;20.75;75.24;98277.25;4970106;28;20552;-83
2023/10/18 05:15:28;;;;;;;25.42;5.90;;;;;;;20.74;75.41;98265.72;4970165;28;20106;-82
2023/10/18 05:17:57;;;;;;;16.88;5.28;;;;;;;20.76;75.25;98270.94;4969707;28;20399;-83
2023/10/18 05:20:24;;;;;;;21.48;6.95;;;;;;;20.74;75.29;98264.88;4970152;28;20407;-82
2023/10/18 05:22:52;;;;;;;24.20;5.38;;;;;;;20.80;74.63;98269.75;4973236;28;20045;-82
2023/10/18 05:43:54;;;;;;;24.23;6.38;;;;;;;20.74;74.58;98268.41;4972268;28;20089;-82
2023/10/18 05:46:23;;;;;;;25.15;5.47;;;;;;;20.76;74.84;98262.91;4955629;28;20052;-82
2023/10/18 05:48:48;;;;;;;23.77;6.50;;;;;;;20.78;74.56;98260.97;4972793;28;20085;-82
2023/10/18 05:53:48;;;;;;;23.90;6.07;;;;;;;20.78;75.01;98260.97;4992475;28;20085;-82
2023/10/18 05:56:14;;;;;;;19.47;5.80;;;;;;;20.75;74.66;98270.09;4984537;28;20030;-82
2023/10/18 05:58:39;;;;;;;18.77;5.97;;;;;;;20.74;74.60;98270.22;4972652;28;20027;-82
2023/10/18 06:01:04;;;;;;;21.83;5.63;;;;;;;20.74;74.62;98270.22;4972836;28;20027;-82
2023/10/18 06:03:41;;;;;;;23.03;5.63;;;;;;;20.72;74.69;98285.53;4972267;28;20097;-82
2023/10/18 06:06:08;;;;;;;26.15;5.45;;;;;;;20.73;74.63;98279.22;4972457;28;20156;-81
2023/10/18 06:08:34;;;;;;;20.87;5.73;;;;;;;20.74;74.47;98271.09;4972825;28;20031;-81
2023/10/18 06:11:21;;;;;;;19.08;5.53;;;;;;;20.73;74.56;98281.88;4972728;28;20603;-79
2023/10/18 06:13:46;;;;;;;22.95;6.00;;;;;;;20.71;74.69;98284.66;4972632;28;20026;-81
2023/10/18 06:16:20;;;;;;;18.87;5.13;;;;;;;20.70;74.56;98284.81;4972649;28;20039;-82
2023/10/18 06:18:48;;;;;;;20.25;5.90;;;;;;;20.69;75.09;98283.09;4954276;28;20037;-83
2023/10/18 06:21:19;;;;;;;23.45;6.65;;;;;;;20.67;74.67;98282.38;4972322;28;20034;-81
2023/10/18 06:23:54;;;;;;;19.35;4.97;;;;;;;20.68;74.92;98286.75;4972374;28;20372;-83
2023/10/18 06:26:30;;;;;;;22.50;5.37;;;;;;;20.67;74.91;98274.34;4972296;28;20026;-81
2023/10/18 06:29:02;;;;;;;20.10;5.35;;;;;;;20.64;74.93;98288.81;4963693;28;20023;-81
2023/10/18 06:31:31;;;;;;;21.58;5.53;;;;;;;20.66;74.98;98286.84;4963139;28;20384;-80
2023/10/18 06:33:59;;;;;;;23.02;5.68;;;;;;;20.68;74.67;98292.94;4964105;28;20018;-81
2023/10/18 06:36:26;;;;;;;19.35;5.72;;;;;;;20.67;74.80;98296.59;4967039;28;20039;-81
2023/10/18 06:38:52;;;;;;;26.07;6.00;;;;;;;20.67;74.95;98295.75;4971353;28;20033;-81
2023/10/18 06:41:21;;;;;;;25.20;5.95;;;;;;;20.69;74.56;98294.63;4969599;28;20109;-81
2023/10/18 06:43:49;;;;;;;20.52;6.47;;;;;;;20.68;74.70;98300.13;4947465;28;20573;-82
2023/10/18 06:46:26;;;;;;;23.50;6.80;;;;;;;20.73;74.71;98297.94;4947903;28;20062;-81
2023/10/18 06:48:55;;;;;;;20.42;6.10;;;;;;;20.75;74.54;98293.31;4970624;28;20038;-83
2023/10/18 06:51:31;;;;;;;20.37;5.60;;;;;;;20.77;74.62;98305.59;4974604;28;20026;-81
2023/10/18 06:54:03;;;;;;;24.02;6.22;;;;;;;20.79;74.60;98302.78;4973735;28;20053;-82
2023/10/18 06:56:32;;;;;;;25.30;5.72;;;;;;;20.84;74.18;98307.81;4981136;28;20097;-82
2023/10/18 06:59:07;;;;;;;25.85;6.25;;;;;;;20.90;74.46;98308.19;4963658;28;20074;-81
2023/10/18 07:01:33;;;;;;;21.58;6.10;;;;;;;20.96;74.21;98308.69;4962295;28;20128;-81
2023/10/18 07:04:00;;;;;;;16.33;5.23;;;;;;;21.04;73.74;98303.56;4961417;28;20034;-81
2023/10/18 07:06:29;;;;;;;22.95;5.22;;;;;;;21.11;73.61;98311.97;4960877;28;20051;-81
2023/10/18 07:08:55;;;;;;;17.67;5.38;;;;;;;21.18;73.69;98307.81;4952180;28;20110;-83
2023/10/18 07:11:23;;;;;;;22.42;6.22;;;;;;;21.22;73.50;98323.53;4951629;29;20023;-82
2023/10/18 07:13:54;;;;;;;30.98;6.85;;;;;;;21.29;72.97;98321.22;4934415;29;20039;-82
2023/10/18 07:16:38;;;;;;;25.23;5.23;;;;;;;21.37;73.21;98318.75;4934337;29;20117;-82
2023/10/18 07:19:06;;;;;;;23.45;5.95;;;;;;;21.41;72.97;98330.09;4946728;28;20145;-82
2023/10/18 07:21:33;;;;;;;20.67;5.22;;;;;;;21.48;72.47;98333.13;4970530;28;20138;-82
2023/10/18 07:24:02;;;;;;;26.77;6.22;;;;;;;21.56;72.66;98329.81;4970762;28;20085;-83
2023/10/18 07:26:29;;;;;;;22.20;5.28;;;;;;;21.62;72.37;98326.66;4967059;28;20024;-83
2023/10/18 07:28:55;;;;;;;28.47;5.83;;;;;;;21.72;72.26;98335.66;4953575;28;20042;-82
2023/10/18 07:31:23;;;;;;;21.23;5.30;;;;;;;21.83;72.02;98331.28;4966935;28;20034;-82
2023/10/18 07:33:50;;;;;;;19.90;5.75;;;;;;;21.90;71.72;98332.47;4969896;28;20031;-82
2023/10/18 07:36:18;;;;;;;21.98;6.40;;;;;;;22.01;71.26;98328.91;4970179;28;20034;-82
2023/10/18 07:38:47;;;;;;;21.87;5.73;;;;;;;22.03;71.11;98338.50;4970167;28;20161;-81
2023/10/18 07:41:14;;;;;;;23.33;5.88;;;;;;;22.01;71.02;98337.78;4970016;28;20026;-82
2023/10/18 07:43:41;;;;;;;25.42;6.40;;;;;;;21.98;71.05;98347.91;4970367;28;20035;-82
2023/10/18 07:46:10;;;;;;;22.52;5.88;;;;;;;21.89;71.10;98345.00;4953071;28;20054;-82
2023/10/18 07:48:38;;;;;;;19.75;5.13;;;;;;;21.87;71.18;98349.63;4955321;28;20507;-82
2023/10/18 07:51:26;;;;;;;21.43;5.77;;;;;;;21.88;71.50;98355.84;4970321;28;20114;-82
2023/10/18 07:53:53;;;;;;;26.58;5.70;;;;;;;21.87;71.32;98355.00;4988990;28;20034;-83
2023/10/18 07:56:26;;;;;;;27.33;6.05;;;;;;;21.88;71.34;98350.50;4981163;28;20078;-83
2023/10/18 07:58:54;;;;;;;24.30;5.30;;;;;;;21.92;71.51;98357.31;4969638;28;20039;-82
2023/10/18 08:01:46;;;;;;;25.60;5.35;;;;;;;21.98;71.33;98364.00;4969788;28;20038;-83
2023/10/18 08:04:20;;;;;;;26.93;5.30;;;;;;;22.01;71.06;98361.06;4948647;28;20396;-81
2023/10/18 08:06:49;;;;;;;24.58;5.55;;;;;;;22.06;70.95;98359.72;4938122;28;20039;-82
2023/10/18 08:09:17;;;;;;;29.65;6.28;;;;;;;22.04;70.61;98353.59;4943216;28;20471;-81
2023/10/18 08:11:44;;;;;;;25.02;5.43;;;;;;;22.12;70.42;98355.66;4950893;28;20047;-81
2023/10/18 08:14:16;;;;;;;27.90;6.13;;;;;;;22.15;70.24;98357.22;4950624;29;20631;-82
2023/10/18 08:16:43;;;;;;;24.00;6.17;;;;;;;22.16;70.28;98357.09;4953016;28;20062;-82
2023/10/18 08:19:10;;;;;;;23.08;5.72;;;;;;;22.22;70.14;98361.97;4968212;28;20027;-82
2023/10/18 08:21:38;;;;;;;21.40;5.15;;;;;;;22.31;69.99;98362.16;4969943;28;20105;-81
2023/10/18 08:24:09;;;;;;;20.65;5.22;;;;;;;22.38;69.88;98368.72;4969416;28;20519;-81
2023/10/18 08:26:47;;;;;;;20.67;5.00;;;;;;;22.49;69.82;98375.88;4969317;28;20030;-77
2023/10/18 08:29:16;;;;;;;21.23;5.50;;;;;;;22.63;68.75;98375.59;4954672;28;20031;-79
2023/10/18 08:31:48;;;;;;;20.58;5.85;;;;;;;22.68;68.69;98377.03;4969002;28;20502;-80
2023/10/18 08:34:23;;;;;;;25.30;5.80;;;;;;;22.77;68.38;98369.03;4967820;28;20050;-80
2023/10/18 08:37:01;;;;;;;19.77;5.25;;;;;;;22.90;67.77;98368.84;4952345;28;20026;-81
2023/10/18 08:39:27;;;;;;;27.30;6.47;;;;;;;22.93;67.35;98376.63;4969392;28;20066;-80
2023/10/18 08:42:14;;;;;;;26.90;6.17;;;;;;;22.91;67.19;98393.84;4969759;28;20074;-81
2023/10/18 08:44:40;;;;;;;22.83;5.53;;;;;;;22.93;67.32;98395.41;4969950;28;20034;-80
2023/10/18 08:49:44;;;;;;;26.60;5.90;;;;;;;22.90;67.21;98394.81;4969443;28;20038;-81
2023/10/18 08:52:10;;;;;;;21.23;4.70;;;;;;;22.96;67.33;98402.34;4968996;28;20722;-80
2023/10/18 08:54:39;;;;;;;24.77;4.95;;;;;;;22.99;67.18;98409.28;4969645;28;20092;-81
2023/10/18 08:57:08;;;;;;;22.33;4.68;;;;;;;23.04;67.23;98401.69;4972782;28;20487;-80
2023/10/18 08:59:43;;;;;;;21.83;5.88;;;;;;;23.15;67.04;98398.94;4973515;28;20026;-79
2023/10/18 09:02:20;;;;;;;25.53;5.60;;;;;;;23.25;67.00;98408.84;4972644;28;20026;-81
2023/10/18 09:04:52;;;;;;;18.42;4.95;;;;;;;23.36;66.23;98406.13;4972476;28;20503;-80
2023/10/18 09:07:21;;;;;;;22.02;5.28;;;;;;;23.49;66.15;98401.38;4958526;28;20476;-80
2023/10/18 09:09:58;;;;;;;23.65;5.43;;;;;;;23.57;65.10;98410.63;4961110;28;20033;-79
2023/10/18 09:12:35;;;;;;;20.30;5.35;;;;;;;23.65;65.43;98410.78;4962513;28;20030;-79
2023/10/18 09:15:27;;;;;;;21.77;4.80;;;;;;;23.74;64.98;98409.94;4962235;28;20033;-80
2023/10/18 09:17:46;;;;;;;15.93;4.38;;;;;;;23.91;64.61;98404.91;4953332;29;20138;-79
2023/10/18 09:20:15;;;;;;;22.43;4.87;;;;;;;24.04;64.65;98405.56;4953025;28;20114;-81
2023/10/18 09:22:45;;;;;;;24.90;5.35;;;;;;;24.21;64.25;98411.22;4972334;28;20030;-79
2023/10/18 09:25:11;;;;;;;24.85;4.95;;;;;;;24.37;63.76;98406.16;4973221;28;20039;-81
2023/10/18 09:27:36;;;;;;;26.17;5.33;;;;;;;24.43;63.00;98412.81;4972718;28;20110;-80
2023/10/18 09:30:04;;;;;;;23.60;5.57;;;;;;;24.51;62.92;98398.66;4972371;28;20145;-80
2023/10/18 09:32:32;;;;;;;21.20;5.03;;;;;;;24.52;62.49;98398.50;4972316;28;20266;-82
2023/10/18 09:35:06;;;;;;;24.20;5.70;;;;;;;24.51;62.49;98395.97;4965955;28;20090;-81
2023/10/18 09:37:35;;;;;;;29.00;5.30;;;;;;;24.52;62.22;98405.75;4972346;28;20066;-82
2023/10/18 09:40:03;;;;;;;20.05;5.00;;;;;;;24.53;62.08;98412.81;4968528;28;20059;-81
2023/10/18 09:42:28;;;;;;;21.92;4.80;;;;;;;24.54;61.90;98403.75;4963708;28;20023;-81
2023/10/18 09:44:53;;;;;;;21.17;4.80;;;;;;;24.58;62.27;98399.78;4962408;28;20019;-80
2023/10/18 09:47:23;;;;;;;24.50;5.10;;;;;;;24.64;61.86;98411.84;4943702;28;20065;-81
2023/10/18 09:49:50;;;;;;;22.45;4.55;;;;;;;24.69;61.48;98414.94;4959651;28;20023;-81
2023/10/18 09:52:16;;;;;;;17.33;4.35;;;;;;;24.73;61.21;98420.91;4968122;28;20645;-81
2023/10/18 09:54:51;;;;;;;20.67;5.03;;;;;;;24.76;60.35;98421.47;4959585;28;20101;-79
2023/10/18 09:57:24;;;;;;;18.98;5.30;;;;;;;24.81;60.75;98418.34;4962168;28;20042;-82
2023/10/18 09:59:56;;;;;;;21.08;4.38;;;;;;;24.83;60.62;98412.81;4961230;28;20523;-80
2023/10/18 10:02:24;;;;;;;21.55;4.93;;;;;;;24.92;60.75;98431.66;4960095;28;20267;-81
2023/10/18 10:05:04;;;;;;;23.88;4.80;;;;;;;25.03;59.97;98424.44;4965398;28;20503;-83
2023/10/18 10:07:39;;;;;;;20.60;4.40;;;;;;;25.19;59.99;98424.66;4965298;28;20031;-78
2023/10/18 10:10:08;;;;;;;19.55;4.00;;;;;;;25.33;59.57;98420.69;4948642;28;20025;-82
2023/10/18 10:12:34;;;;;;;20.65;4.68;;;;;;;25.53;58.85;98425.16;4960356;28;20573;-82
2023/10/18 10:14:59;;;;;;;16.73;4.85;;;;;;;25.69;58.92;98428.09;4965288;28;20038;-84
2023/10/18 10:17:28;;;;;;;25.37;4.60;;;;;;;25.80;59.00;98427.88;4962121;28;20043;-84
2023/10/18 10:19:58;;;;;;;18.88;5.15;;;;;;;25.85;58.42;98429.28;4971848;28;20030;-86
2023/10/18 10:22:25;;;;;;;21.00;4.95;;;;;;;25.86;58.52;98423.75;4988924;28;20046;-86
2023/10/18 10:25:05;;;;;;;23.52;5.18;;;;;;;25.80;58.21;98417.09;4959694;28;20031;-86
2023/10/18 10:30:03;;;;;;;19.20;4.72;;;;;;;25.74;58.02;98433.00;4962265;28;20035;-85
2023/10/18 10:32:29;;;;;;;21.10;4.60;;;;;;;25.73;58.29;98437.56;4970775;28;20058;-85
2023/10/18 10:35:15;;;;;;;21.23;4.22;;;;;;;25.66;58.51;98436.44;4971975;28;20058;-84
2023/10/18 10:37:55;;;;;;;18.23;4.45;;;;;;;25.62;57.96;98443.13;4972592;28;20035;-85
2023/10/18 10:43:04;;;;;;;17.13;4.70;;;;;;;25.57;57.53;98451.69;4972374;28;20486;-85
2023/10/18 10:45:38;;;;;;;18.63;4.70;;;;;;;25.55;58.81;98459.03;4971016;28;20042;-86
2023/10/18 10:48:15;;;;;;;22.75;3.97;;;;;;;25.48;58.38;98468.72;4971681;28;20451;-86
2023/10/18 10:50:50;;;;;;;21.73;4.65;;;;;;;25.46;59.13;98471.53;4961649;28;20053;-86
2023/10/18 10:53:29;;;;;;;20.23;4.40;;;;;;;25.43;59.08;98466.41;4989766;28;20031;-86
2023/10/18 10:55:55;;;;;;;20.02;5.40;;;;;;;25.53;58.70;98465.59;4972042;28;20034;-85
2023/10/18 10:58:22;;;;;;;18.75;3.80;;;;;;;25.58;58.76;98468.69;4972473;28;20112;-88
2023/10/18 11:01:04;;;;;;;19.10;4.72;;;;;;;25.60;58.71;98466.69;4971461;28;20038;-82
2023/10/18 11:03:33;;;;;;;20.25;4.20;;;;;;;25.67;58.58;98457.00;4970728;28;20027;-81
2023/10/18 11:05:59;;;;;;;15.73;3.93;;;;;;;25.70;58.35;98443.25;4970732;28;20066;-82
2023/10/18 11:08:27;;;;;;;20.23;4.35;;;;;;;25.71;58.16;98438.72;4971531;28;20069;-81
2023/10/18 11:10:55;;;;;;;19.60;4.13;;;;;;;25.67;57.56;98432.75;4973486;28;20037;-83
2023/10/18 11:13:24;;;;;;;20.60;4.40;;;;;;;25.67;57.45;98429.22;4990888;28;20027;-83
2023/10/18 11:15:52;;;;;;;23.85;4.82;;;;;;;25.64;57.91;98430.34;4975104;28;20041;-84
2023/10/18 11:18:20;;;;;;;16.97;4.17;;;;;;;25.63;57.42;98426.81;4985224;28;20046;-81
2023/10/18 11:21:06;;;;;;;12.98;3.38;;;;;;;25.63;57.44;98428.66;4969805;28;20034;-82
2023/10/18 11:23:37;;;;;;;17.67;3.90;;;;;;;25.59;57.38;98421.88;4970423;28;20038;-81
2023/10/18 11:26:08;;;;;;;17.15;3.80;;;;;;;25.60;57.69;98423.56;4969941;28;20037;-81
2023/10/18 11:28:37;;;;;;;17.67;4.10;;;;;;;25.59;57.47;98427.25;4958865;28;20090;-82
2023/10/18 11:31:04;;;;;;;17.40;3.87;;;;;;;25.55;57.23;98417.78;4970034;28;20194;-81
2023/10/18 11:33:46;;;;;;;20.38;4.45;;;;;;;25.53;57.38;98423.31;4967672;28;20027;-81
2023/10/18 11:36:18;;;;;;;22.92;4.55;;;;;;;25.54;57.48;98422.31;4970431;28;20065;-82
2023/10/18 11:41:36;;;;;;;19.13;4.35;;;;;;;25.61;57.24;98425.28;4970826;28;20049;-81
2023/10/18 11:44:06;;;;;;;18.50;3.83;;;;;;;25.68;56.35;98425.53;4970605;28;20062;-82
2023/10/18 11:46:58;;;;;;;16.77;3.78;;;;;;;25.74;55.42;98431.19;4965947;28;20068;-82
2023/10/18 11:49:37;;;;;;;20.60;3.60;;;;;;;25.84;56.70;98424.88;4950680;29;20811;-80
2023/10/18 11:52:03;;;;;;;19.05;3.83;;;;;;;25.94;55.97;98421.13;4962468;28;20467;-82
2023/10/18 11:54:34;;;;;;;13.70;3.85;;;;;;;26.02;55.67;98415.00;4969602;28;20035;-80
2023/10/18 11:57:02;;;;;;;15.60;4.17;;;;;;;26.08;55.55;98400.91;4979568;28;20092;-83
2023/10/18 11:59:28;;;;;;;19.65;3.70;;;;;;;26.13;55.64;98407.69;4972242;28;20082;-80
2023/10/18 12:01:58;;;;;;;21.13;4.35;;;;;;;26.12;55.56;98409.53;4958405;28;20031;-80
2023/10/18 12:04:27;;;;;;;19.40;4.07;;;;;;;26.15;55.61;98400.28;4967758;28;20380;-81
2023/10/18 12:06:56;;;;;;;19.33;4.68;;;;;;;26.16;55.19;98404.66;4968135;28;20039;-80
2023/10/18 12:11:51;;;;;;;19.50;4.43;;;;;;;26.26;55.00;98404.63;4969567;28;20034;-80
2023/10/18 12:14:18;;;;;;;21.48;4.68;;;;;;;26.31;54.89;98407.75;4959579;28;20067;-81
2023/10/18 12:16:44;;;;;;;16.02;3.53;;;;;;;26.34;54.91;98402.88;4961101;28;20049;-79